sensor_id;sensor_type;location;lat;lon;timestamp;P1;durP1;ratioP1;P2;durP2;ratioP2
12719;SDS011;6424;48.520;11.228;2023-05-08T00:01:12;8.60;;;6.93;;
12719;SDS011;6424;48.520;11.228;2023-05-08T00:03:52;8.63;;;7.77;;
12719;SDS011;6424;48.520;11.228;2023-05-08T00:06:34;8.00;;;7.30;;
12719;SDS011;6424;48.520;11.228;2023-05-08T00:09:14;8.40;;;7.60;;
12719;SDS011;6424;48.520;11.228;2023-05-08T00:11:55;8.77;;;7.47;;
12719;SDS011;6424;48.520;11.228;2023-05-08T00:14:36;8.03;;;7.23;;
12719;SDS011;6424;48.520;11.228;2023-05-08T00:17:17;8.97;;;7.57;;
12719;SDS011;6424;48.520;11.228;2023-05-08T00:19:57;8.13;;;7.33;;
12719;SDS011;6424;48.520;11.228;2023-05-08T00:22:38;8.20;;;7.20;;
12719;SDS011;6424;48.520;11.228;2023-05-08T00:25:19;8.10;;;7.37;;
12719;SDS011;6424;48.520;11.228;2023-05-08T00:27:45;9.37;;;8.07;;
12719;SDS011;6424;48.520;11.228;2023-05-08T00:30:26;7.90;;;7.10;;
12719;SDS011;6424;48.520;11.228;2023-05-08T00:33:06;10.23;;;7.77;;
12719;SDS011;6424;48.520;11.228;2023-05-08T00:35:48;9.17;;;7.47;;
12719;SDS011;6424;48.520;11.228;2023-05-08T00:38:29;9.43;;;8.47;;
12719;SDS011;6424;48.520;11.228;2023-05-08T00:41:11;9.37;;;8.30;;
12719;SDS011;6424;48.520;11.228;2023-05-08T00:43:52;9.47;;;8.57;;
12719;SDS011;6424;48.520;11.228;2023-05-08T00:46:33;10.73;;;8.83;;
12719;SDS011;6424;48.520;11.228;2023-05-08T00:49:15;10.73;;;9.03;;
12719;SDS011;6424;48.520;11.228;2023-05-08T00:51:56;9.90;;;8.90;;
12719;SDS011;6424;48.520;11.228;2023-05-08T00:54:37;9.80;;;8.80;;
12719;SDS011;6424;48.520;11.228;2023-05-08T00:57:19;9.77;;;8.20;;
12719;SDS011;6424;48.520;11.228;2023-05-08T01:00:02;9.77;;;8.77;;
12719;SDS011;6424;48.520;11.228;2023-05-08T01:02:29;10.13;;;9.03;;
12719;SDS011;6424;48.520;11.228;2023-05-08T01:05:11;9.37;;;8.47;;
12719;SDS011;6424;48.520;11.228;2023-05-08T01:07:52;9.37;;;8.43;;
12719;SDS011;6424;48.520;11.228;2023-05-08T01:10:43;10.23;;;9.13;;
12719;SDS011;6424;48.520;11.228;2023-05-08T01:13:47;9.20;;;8.00;;
12719;SDS011;6424;48.520;11.228;2023-05-08T01:20:06;9.03;;;8.23;;
12719;SDS011;6424;48.520;11.228;2023-05-08T01:34:23;10.33;;;9.13;;
12719;SDS011;6424;48.520;11.228;2023-05-08T01:37:11;9.97;;;8.70;;
12719;SDS011;6424;48.520;11.228;2023-05-08T01:40:09;10.20;;;9.10;;
12719;SDS011;6424;48.520;11.228;2023-05-08T01:43:45;9.27;;;8.37;;
12719;SDS011;6424;48.520;11.228;2023-05-08T01:46:11;9.77;;;8.77;;
12719;SDS011;6424;48.520;11.228;2023-05-08T01:49:32;9.03;;;8.03;;
12719;SDS011;6424;48.520;11.228;2023-05-08T01:52:06;9.10;;;7.97;;
12719;SDS011;6424;48.520;11.228;2023-05-08T01:55:03;9.07;;;8.17;;
12719;SDS011;6424;48.520;11.228;2023-05-08T01:57:48;8.47;;;7.57;;
12719;SDS011;6424;48.520;11.228;2023-05-08T02:00:32;9.73;;;8.37;;
12719;SDS011;6424;48.520;11.228;2023-05-08T02:03:13;9.07;;;8.17;;
12719;SDS011;6424;48.520;11.228;2023-05-08T02:05:56;9.20;;;7.90;;
12719;SDS011;6424;48.520;11.228;2023-05-08T02:08:39;10.53;;;7.67;;
12719;SDS011;6424;48.520;11.228;2023-05-08T02:11:21;9.10;;;8.07;;
12719;SDS011;6424;48.520;11.228;2023-05-08T02:13:48;7.50;;;6.80;;
12719;SDS011;6424;48.520;11.228;2023-05-08T02:16:30;8.67;;;7.77;;
12719;SDS011;6424;48.520;11.228;2023-05-08T02:19:12;9.23;;;7.43;;
12719;SDS011;6424;48.520;11.228;2023-05-08T02:21:55;8.83;;;7.90;;
12719;SDS011;6424;48.520;11.228;2023-05-08T02:24:38;8.40;;;7.50;;
12719;SDS011;6424;48.520;11.228;2023-05-08T02:27:21;8.43;;;7.50;;
12719;SDS011;6424;48.520;11.228;2023-05-08T02:30:03;7.60;;;6.90;;
12719;SDS011;6424;48.520;11.228;2023-05-08T02:32:44;8.83;;;7.43;;
12719;SDS011;6424;48.520;11.228;2023-05-08T02:35:27;8.53;;;7.37;;
12719;SDS011;6424;48.520;11.228;2023-05-08T02:37:55;8.10;;;7.23;;
12719;SDS011;6424;48.520;11.228;2023-05-08T02:40:39;9.20;;;7.73;;
12719;SDS011;6424;48.520;11.228;2023-05-08T02:43:23;8.57;;;7.53;;
12719;SDS011;6424;48.520;11.228;2023-05-08T02:48:55;8.27;;;7.20;;
12719;SDS011;6424;48.520;11.228;2023-05-08T02:51:48;8.10;;;7.30;;
12719;SDS011;6424;48.520;11.228;2023-05-08T02:54:36;8.53;;;7.63;;
12719;SDS011;6424;48.520;11.228;2023-05-08T02:57:42;10.40;;;7.40;;
12719;SDS011;6424;48.520;11.228;2023-05-08T03:00:28;8.40;;;7.53;;
12719;SDS011;6424;48.520;11.228;2023-05-08T03:03:25;8.60;;;7.00;;
12719;SDS011;6424;48.520;11.228;2023-05-08T03:06:11;8.10;;;7.30;;
12719;SDS011;6424;48.520;11.228;2023-05-08T03:08:52;8.10;;;7.30;;
12719;SDS011;6424;48.520;11.228;2023-05-08T03:11:38;7.87;;;7.17;;
12719;SDS011;6424;48.520;11.228;2023-05-08T03:14:21;8.77;;;6.83;;
12719;SDS011;6424;48.520;11.228;2023-05-08T03:17:05;8.13;;;7.10;;
12719;SDS011;6424;48.520;11.228;2023-05-08T03:19:48;8.23;;;7.43;;
12719;SDS011;6424;48.520;11.228;2023-05-08T03:22:31;8.20;;;7.40;;
12719;SDS011;6424;48.520;11.228;2023-05-08T03:25:15;7.93;;;7.20;;
12719;SDS011;6424;48.520;11.228;2023-05-08T03:27:58;7.40;;;6.60;;
12719;SDS011;6424;48.520;11.228;2023-05-08T03:30:40;8.17;;;7.37;;
12719;SDS011;6424;48.520;11.228;2023-05-08T03:33:21;8.53;;;6.83;;
12719;SDS011;6424;48.520;11.228;2023-05-08T03:36:03;8.30;;;7.50;;
12719;SDS011;6424;48.520;11.228;2023-05-08T03:38:45;9.17;;;8.00;;
12719;SDS011;6424;48.520;11.228;2023-05-08T03:41:26;8.07;;;7.27;;
12719;SDS011;6424;48.520;11.228;2023-05-08T03:44:07;8.87;;;7.17;;
12719;SDS011;6424;48.520;11.228;2023-05-08T03:46:48;8.37;;;7.57;;
12719;SDS011;6424;48.520;11.228;2023-05-08T03:49:31;8.63;;;7.83;;
12719;SDS011;6424;48.520;11.228;2023-05-08T03:52:14;9.60;;;7.40;;
12719;SDS011;6424;48.520;11.228;2023-05-08T03:54:55;8.83;;;8.03;;
12719;SDS011;6424;48.520;11.228;2023-05-08T03:57:21;9.83;;;8.93;;
12719;SDS011;6424;48.520;11.228;2023-05-08T04:00:02;9.20;;;8.30;;
12719;SDS011;6424;48.520;11.228;2023-05-08T04:02:40;8.60;;;7.70;;
12719;SDS011;6424;48.520;11.228;2023-05-08T04:05:37;8.90;;;8.03;;
12719;SDS011;6424;48.520;11.228;2023-05-08T04:08:30;8.83;;;7.37;;
12719;SDS011;6424;48.520;11.228;2023-05-08T04:14:18;8.93;;;8.07;;
12719;SDS011;6424;48.520;11.228;2023-05-08T04:17:01;8.60;;;7.80;;
12719;SDS011;6424;48.520;11.228;2023-05-08T04:19:46;9.00;;;8.20;;
12719;SDS011;6424;48.520;11.228;2023-05-08T04:22:31;9.20;;;8.40;;
12719;SDS011;6424;48.520;11.228;2023-05-08T04:25:15;10.03;;;8.73;;
12719;SDS011;6424;48.520;11.228;2023-05-08T04:27:57;10.23;;;8.17;;
12719;SDS011;6424;48.520;11.228;2023-05-08T04:30:39;9.80;;;8.80;;
12719;SDS011;6424;48.520;11.228;2023-05-08T04:33:20;9.47;;;8.47;;
12719;SDS011;6424;48.520;11.228;2023-05-08T04:36:01;9.70;;;8.80;;
12719;SDS011;6424;48.520;11.228;2023-05-08T04:38:42;9.27;;;8.40;;
12719;SDS011;6424;48.520;11.228;2023-05-08T04:41:23;10.20;;;8.33;;
12719;SDS011;6424;48.520;11.228;2023-05-08T04:44:04;9.77;;;8.77;;
12719;SDS011;6424;48.520;11.228;2023-05-08T04:46:45;9.20;;;8.17;;
12719;SDS011;6424;48.520;11.228;2023-05-08T04:49:25;10.43;;;9.33;;
12719;SDS011;6424;48.520;11.228;2023-05-08T04:52:06;9.87;;;8.87;;
12719;SDS011;6424;48.520;11.228;2023-05-08T04:54:47;9.57;;;8.67;;
12719;SDS011;6424;48.520;11.228;2023-05-08T04:57:28;10.43;;;9.43;;
12719;SDS011;6424;48.520;11.228;2023-05-08T05:00:09;10.73;;;9.63;;
12719;SDS011;6424;48.520;11.228;2023-05-08T05:02:50;11.53;;;10.10;;
12719;SDS011;6424;48.520;11.228;2023-05-08T05:05:31;11.67;;;10.53;;
12719;SDS011;6424;48.520;11.228;2023-05-08T05:08:11;11.97;;;10.67;;
12719;SDS011;6424;48.520;11.228;2023-05-08T05:10:37;11.13;;;9.90;;
12719;SDS011;6424;48.520;11.228;2023-05-08T05:13:19;11.20;;;9.50;;
12719;SDS011;6424;48.520;11.228;2023-05-08T05:15:44;11.47;;;10.37;;
12719;SDS011;6424;48.520;11.228;2023-05-08T05:18:25;12.23;;;10.77;;
12719;SDS011;6424;48.520;11.228;2023-05-08T05:20:51;10.67;;;9.57;;
12719;SDS011;6424;48.520;11.228;2023-05-08T05:23:32;10.90;;;9.90;;
12719;SDS011;6424;48.520;11.228;2023-05-08T05:25:58;11.20;;;10.10;;
12719;SDS011;6424;48.520;11.228;2023-05-08T05:28:38;12.30;;;11.10;;
12719;SDS011;6424;48.520;11.228;2023-05-08T05:31:04;11.13;;;10.03;;
12719;SDS011;6424;48.520;11.228;2023-05-08T05:33:45;11.83;;;10.63;;
12719;SDS011;6424;48.520;11.228;2023-05-08T05:36:25;11.40;;;9.90;;
12719;SDS011;6424;48.520;11.228;2023-05-08T05:39:06;12.67;;;11.37;;
12719;SDS011;6424;48.520;11.228;2023-05-08T05:41:47;11.70;;;10.50;;
12719;SDS011;6424;48.520;11.228;2023-05-08T05:44:28;13.37;;;12.10;;
12719;SDS011;6424;48.520;11.228;2023-05-08T05:47:09;12.87;;;11.60;;
12719;SDS011;6424;48.520;11.228;2023-05-08T05:49:50;12.93;;;11.73;;
12719;SDS011;6424;48.520;11.228;2023-05-08T05:52:31;12.40;;;11.10;;
12719;SDS011;6424;48.520;11.228;2023-05-08T05:55:12;13.50;;;11.67;;
12719;SDS011;6424;48.520;11.228;2023-05-08T05:57:53;14.40;;;12.20;;
12719;SDS011;6424;48.520;11.228;2023-05-08T06:00:34;13.80;;;12.33;;
12719;SDS011;6424;48.520;11.228;2023-05-08T06:03:14;13.37;;;11.70;;
12719;SDS011;6424;48.520;11.228;2023-05-08T06:05:55;14.63;;;12.03;;
12719;SDS011;6424;48.520;11.228;2023-05-08T06:08:36;13.63;;;12.33;;
12719;SDS011;6424;48.520;11.228;2023-05-08T06:11:02;13.47;;;12.07;;
12719;SDS011;6424;48.520;11.228;2023-05-08T06:13:42;12.83;;;11.53;;
12719;SDS011;6424;48.520;11.228;2023-05-08T06:16:23;12.87;;;11.67;;
12719;SDS011;6424;48.520;11.228;2023-05-08T06:19:04;14.83;;;13.30;;
12719;SDS011;6424;48.520;11.228;2023-05-08T06:21:45;14.83;;;13.40;;
12719;SDS011;6424;48.520;11.228;2023-05-08T06:24:26;13.90;;;12.50;;
12719;SDS011;6424;48.520;11.228;2023-05-08T06:27:06;11.83;;;10.60;;
12719;SDS011;6424;48.520;11.228;2023-05-08T06:29:48;12.57;;;11.27;;
12719;SDS011;6424;48.520;11.228;2023-05-08T06:32:32;11.63;;;10.43;;
12719;SDS011;6424;48.520;11.228;2023-05-08T06:35:13;11.37;;;10.17;;
12719;SDS011;6424;48.520;11.228;2023-05-08T06:37:43;12.37;;;10.87;;
12719;SDS011;6424;48.520;11.228;2023-05-08T06:40:24;11.70;;;9.90;;
12719;SDS011;6424;48.520;11.228;2023-05-08T06:43:05;11.17;;;9.97;;
12719;SDS011;6424;48.520;11.228;2023-05-08T06:45:46;11.67;;;10.47;;
12719;SDS011;6424;48.520;11.228;2023-05-08T06:48:26;12.03;;;10.87;;
12719;SDS011;6424;48.520;11.228;2023-05-08T06:51:08;10.50;;;9.50;;
12719;SDS011;6424;48.520;11.228;2023-05-08T06:53:48;11.57;;;10.27;;
12719;SDS011;6424;48.520;11.228;2023-05-08T06:56:29;10.80;;;9.70;;
12719;SDS011;6424;48.520;11.228;2023-05-08T06:59:10;11.00;;;9.50;;
12719;SDS011;6424;48.520;11.228;2023-05-08T07:01:51;10.57;;;9.50;;
12719;SDS011;6424;48.520;11.228;2023-05-08T07:04:17;10.43;;;9.43;;
12719;SDS011;6424;48.520;11.228;2023-05-08T07:06:57;10.53;;;9.53;;
12719;SDS011;6424;48.520;11.228;2023-05-08T07:09:39;13.03;;;9.40;;
12719;SDS011;6424;48.520;11.228;2023-05-08T07:12:20;10.20;;;9.20;;
12719;SDS011;6424;48.520;11.228;2023-05-08T07:15:01;13.03;;;9.30;;
12719;SDS011;6424;48.520;11.228;2023-05-08T07:17:27;10.50;;;9.50;;
12719;SDS011;6424;48.520;11.228;2023-05-08T07:20:09;9.20;;;8.37;;
12719;SDS011;6424;48.520;11.228;2023-05-08T07:22:50;9.80;;;8.80;;
12719;SDS011;6424;48.520;11.228;2023-05-08T07:25:31;9.93;;;8.77;;
12719;SDS011;6424;48.520;11.228;2023-05-08T07:28:12;12.00;;;9.63;;
12719;SDS011;6424;48.520;11.228;2023-05-08T07:30:53;11.67;;;9.47;;
12719;SDS011;6424;48.520;11.228;2023-05-08T07:33:33;11.13;;;9.93;;
12719;SDS011;6424;48.520;11.228;2023-05-08T07:36:14;10.33;;;8.97;;
12719;SDS011;6424;48.520;11.228;2023-05-08T07:38:40;10.90;;;8.97;;
12719;SDS011;6424;48.520;11.228;2023-05-08T07:41:21;9.63;;;8.73;;
12719;SDS011;6424;48.520;11.228;2023-05-08T07:44:01;10.23;;;9.23;;
12719;SDS011;6424;48.520;11.228;2023-05-08T07:46:42;11.83;;;9.50;;
12719;SDS011;6424;48.520;11.228;2023-05-08T07:49:23;10.13;;;9.13;;
12719;SDS011;6424;48.520;11.228;2023-05-08T07:52:04;9.97;;;8.97;;
12719;SDS011;6424;48.520;11.228;2023-05-08T07:54:30;10.93;;;9.83;;
12719;SDS011;6424;48.520;11.228;2023-05-08T07:57:11;10.30;;;9.23;;
12719;SDS011;6424;48.520;11.228;2023-05-08T07:59:52;12.37;;;9.23;;
12719;SDS011;6424;48.520;11.228;2023-05-08T08:02:32;10.57;;;9.37;;
12719;SDS011;6424;48.520;11.228;2023-05-08T08:05:13;10.10;;;9.10;;
12719;SDS011;6424;48.520;11.228;2023-05-08T08:07:54;10.70;;;9.63;;
12719;SDS011;6424;48.520;11.228;2023-05-08T08:10:35;9.57;;;8.63;;
12719;SDS011;6424;48.520;11.228;2023-05-08T08:13:00;10.53;;;9.43;;
12719;SDS011;6424;48.520;11.228;2023-05-08T08:15:41;12.23;;;10.17;;
12719;SDS011;6424;48.520;11.228;2023-05-08T08:18:22;11.97;;;9.93;;
12719;SDS011;6424;48.520;11.228;2023-05-08T08:21:03;10.33;;;9.13;;
12719;SDS011;6424;48.520;11.228;2023-05-08T08:23:45;10.10;;;9.10;;
12719;SDS011;6424;48.520;11.228;2023-05-08T08:26:26;11.13;;;10.03;;
12719;SDS011;6424;48.520;11.228;2023-05-08T08:29:07;12.33;;;9.53;;
12719;SDS011;6424;48.520;11.228;2023-05-08T08:31:32;11.30;;;10.03;;
12719;SDS011;6424;48.520;11.228;2023-05-08T08:34:13;10.80;;;9.70;;
12719;SDS011;6424;48.520;11.228;2023-05-08T08:36:54;10.77;;;9.77;;
12719;SDS011;6424;48.520;11.228;2023-05-08T08:39:35;11.13;;;9.83;;
12719;SDS011;6424;48.520;11.228;2023-05-08T08:42:16;10.50;;;9.37;;
12719;SDS011;6424;48.520;11.228;2023-05-08T08:44:56;11.17;;;9.77;;
12719;SDS011;6424;48.520;11.228;2023-05-08T08:47:37;10.83;;;9.23;;
12719;SDS011;6424;48.520;11.228;2023-05-08T08:50:22;10.43;;;9.43;;
12719;SDS011;6424;48.520;11.228;2023-05-08T08:53:07;10.70;;;9.57;;
12719;SDS011;6424;48.520;11.228;2023-05-08T08:55:49;10.20;;;9.20;;
12719;SDS011;6424;48.520;11.228;2023-05-08T09:01:16;11.03;;;9.97;;
12719;SDS011;6424;48.520;11.228;2023-05-08T09:03:58;10.60;;;9.00;;
12719;SDS011;6424;48.520;11.228;2023-05-08T09:06:39;10.63;;;9.53;;
12719;SDS011;6424;48.520;11.228;2023-05-08T09:09:20;10.57;;;9.57;;
12719;SDS011;6424;48.520;11.228;2023-05-08T09:11:47;10.73;;;9.73;;
12719;SDS011;6424;48.520;11.228;2023-05-08T09:14:27;9.00;;;8.20;;
12719;SDS011;6424;48.520;11.228;2023-05-08T09:17:08;10.70;;;9.60;;
12719;SDS011;6424;48.520;11.228;2023-05-08T09:19:49;9.77;;;8.77;;
12719;SDS011;6424;48.520;11.228;2023-05-08T09:22:31;9.47;;;8.57;;
12719;SDS011;6424;48.520;11.228;2023-05-08T09:25:15;10.00;;;9.00;;
12719;SDS011;6424;48.520;11.228;2023-05-08T09:28:04;10.00;;;9.10;;
12719;SDS011;6424;48.520;11.228;2023-05-08T09:30:58;10.40;;;9.27;;
12719;SDS011;6424;48.520;11.228;2023-05-08T09:33:42;10.60;;;9.60;;
12719;SDS011;6424;48.520;11.228;2023-05-08T09:36:24;10.47;;;9.40;;
12719;SDS011;6424;48.520;11.228;2023-05-08T09:38:53;10.50;;;9.50;;
12719;SDS011;6424;48.520;11.228;2023-05-08T09:41:18;10.57;;;9.53;;
12719;SDS011;6424;48.520;11.228;2023-05-08T09:44:04;10.23;;;9.20;;
12719;SDS011;6424;48.520;11.228;2023-05-08T09:46:46;10.17;;;9.17;;
12719;SDS011;6424;48.520;11.228;2023-05-08T09:49:29;9.77;;;8.77;;
12719;SDS011;6424;48.520;11.228;2023-05-08T09:52:14;9.47;;;8.57;;
12719;SDS011;6424;48.520;11.228;2023-05-08T09:55:05;9.67;;;8.77;;
12719;SDS011;6424;48.520;11.228;2023-05-08T09:57:51;9.37;;;8.57;;
12719;SDS011;6424;48.520;11.228;2023-05-08T10:00:32;10.63;;;8.83;;
12719;SDS011;6424;48.520;11.228;2023-05-08T10:03:04;9.90;;;8.90;;
12719;SDS011;6424;48.520;11.228;2023-05-08T10:05:44;10.03;;;9.13;;
12719;SDS011;6424;48.520;11.228;2023-05-08T10:08:26;9.63;;;8.73;;
12719;SDS011;6424;48.520;11.228;2023-05-08T10:11:18;10.00;;;9.10;;
12719;SDS011;6424;48.520;11.228;2023-05-08T10:14:00;9.83;;;8.93;;
12719;SDS011;6424;48.520;11.228;2023-05-08T10:16:41;9.37;;;8.57;;
12719;SDS011;6424;48.520;11.228;2023-05-08T10:19:23;9.17;;;8.37;;
12719;SDS011;6424;48.520;11.228;2023-05-08T10:22:07;9.30;;;8.40;;
12719;SDS011;6424;48.520;11.228;2023-05-08T10:24:55;9.97;;;8.97;;
12719;SDS011;6424;48.520;11.228;2023-05-08T10:27:38;10.33;;;8.87;;
12719;SDS011;6424;48.520;11.228;2023-05-08T10:30:09;10.90;;;9.80;;
12719;SDS011;6424;48.520;11.228;2023-05-08T10:32:53;10.13;;;9.07;;
12719;SDS011;6424;48.520;11.228;2023-05-08T10:35:37;10.30;;;9.30;;
12719;SDS011;6424;48.520;11.228;2023-05-08T10:38:18;9.50;;;8.53;;
12719;SDS011;6424;48.520;11.228;2023-05-08T10:40:59;10.07;;;8.93;;
12719;SDS011;6424;48.520;11.228;2023-05-08T10:43:41;10.13;;;9.13;;
12719;SDS011;6424;48.520;11.228;2023-05-08T10:49:59;10.67;;;9.63;;
12719;SDS011;6424;48.520;11.228;2023-05-08T10:52:53;10.57;;;9.57;;
12719;SDS011;6424;48.520;11.228;2023-05-08T10:55:44;10.17;;;9.27;;
12719;SDS011;6424;48.520;11.228;2023-05-08T10:58:29;10.50;;;9.43;;
12719;SDS011;6424;48.520;11.228;2023-05-08T11:01:11;10.47;;;9.37;;
12719;SDS011;6424;48.520;11.228;2023-05-08T11:03:52;11.33;;;9.23;;
12719;SDS011;6424;48.520;11.228;2023-05-08T11:06:41;9.77;;;8.87;;
12719;SDS011;6424;48.520;11.228;2023-05-08T11:12:26;9.70;;;8.80;;
12719;SDS011;6424;48.520;11.228;2023-05-08T11:15:09;11.27;;;10.13;;
12719;SDS011;6424;48.520;11.228;2023-05-08T11:17:52;10.33;;;9.27;;
12719;SDS011;6424;48.520;11.228;2023-05-08T11:20:40;10.00;;;9.00;;
12719;SDS011;6424;48.520;11.228;2023-05-08T11:23:36;8.87;;;8.07;;
12719;SDS011;6424;48.520;11.228;2023-05-08T11:26:17;9.70;;;8.80;;
12719;SDS011;6424;48.520;11.228;2023-05-08T11:28:58;9.67;;;8.77;;
12719;SDS011;6424;48.520;11.228;2023-05-08T11:31:48;9.63;;;8.73;;
12719;SDS011;6424;48.520;11.228;2023-05-08T11:37:23;8.40;;;7.60;;
12719;SDS011;6424;48.520;11.228;2023-05-08T11:43:30;10.57;;;9.37;;
12719;SDS011;6424;48.520;11.228;2023-05-08T11:46:15;9.90;;;9.00;;
12719;SDS011;6424;48.520;11.228;2023-05-08T11:48:42;10.30;;;9.30;;
12719;SDS011;6424;48.520;11.228;2023-05-08T11:51:23;10.30;;;9.30;;
12719;SDS011;6424;48.520;11.228;2023-05-08T11:54:04;9.93;;;9.03;;
12719;SDS011;6424;48.520;11.228;2023-05-08T11:56:45;9.90;;;9.00;;
12719;SDS011;6424;48.520;11.228;2023-05-08T11:59:27;10.23;;;9.30;;
12719;SDS011;6424;48.520;11.228;2023-05-08T12:02:08;10.13;;;9.13;;
12719;SDS011;6424;48.520;11.228;2023-05-08T12:04:49;8.17;;;7.47;;
12719;SDS011;6424;48.520;11.228;2023-05-08T12:07:29;9.33;;;8.53;;
12719;SDS011;6424;48.520;11.228;2023-05-08T12:10:11;8.40;;;7.70;;
12719;SDS011;6424;48.520;11.228;2023-05-08T12:12:53;8.03;;;7.30;;
12719;SDS011;6424;48.520;11.228;2023-05-08T12:15:33;9.50;;;8.63;;
12719;SDS011;6424;48.520;11.228;2023-05-08T12:18:16;11.03;;;9.93;;
12719;SDS011;6424;48.520;11.228;2023-05-08T12:20:57;10.40;;;9.50;;
12719;SDS011;6424;48.520;11.228;2023-05-08T12:23:39;11.13;;;10.10;;
12719;SDS011;6424;48.520;11.228;2023-05-08T12:26:05;10.03;;;9.03;;
12719;SDS011;6424;48.520;11.228;2023-05-08T12:28:53;10.20;;;9.20;;
12719;SDS011;6424;48.520;11.228;2023-05-08T12:31:36;9.13;;;8.33;;
12719;SDS011;6424;48.520;11.228;2023-05-08T12:34:02;9.90;;;9.00;;
12719;SDS011;6424;48.520;11.228;2023-05-08T12:36:44;9.37;;;8.47;;
12719;SDS011;6424;48.520;11.228;2023-05-08T12:39:25;10.03;;;8.90;;
12719;SDS011;6424;48.520;11.228;2023-05-08T12:41:51;10.10;;;9.10;;
12719;SDS011;6424;48.520;11.228;2023-05-08T12:44:32;10.73;;;9.17;;
12719;SDS011;6424;48.520;11.228;2023-05-08T12:47:13;9.80;;;8.27;;
12719;SDS011;6424;48.520;11.228;2023-05-08T12:49:38;9.27;;;8.37;;
12719;SDS011;6424;48.520;11.228;2023-05-08T12:52:19;9.03;;;8.23;;
12719;SDS011;6424;48.520;11.228;2023-05-08T12:55:02;9.73;;;8.80;;
12719;SDS011;6424;48.520;11.228;2023-05-08T12:57:43;10.13;;;8.43;;
12719;SDS011;6424;48.520;11.228;2023-05-08T13:00:24;9.30;;;8.30;;
12719;SDS011;6424;48.520;11.228;2023-05-08T13:46:30;8.57;;;6.90;;
12719;SDS011;6424;48.520;11.228;2023-05-08T13:49:11;8.87;;;7.17;;
12719;SDS011;6424;48.520;11.228;2023-05-08T13:51:51;10.20;;;8.60;;
12719;SDS011;6424;48.520;11.228;2023-05-08T13:54:32;9.13;;;8.23;;
12719;SDS011;6424;48.520;11.228;2023-05-08T13:57:13;10.60;;;9.27;;
12719;SDS011;6424;48.520;11.228;2023-05-08T13:59:54;9.47;;;8.53;;
12719;SDS011;6424;48.520;11.228;2023-05-08T14:02:35;9.80;;;8.90;;
12719;SDS011;6424;48.520;11.228;2023-05-08T14:05:16;10.13;;;9.23;;
12719;SDS011;6424;48.520;11.228;2023-05-08T14:07:57;11.27;;;9.43;;
12719;SDS011;6424;48.520;11.228;2023-05-08T14:10:38;10.13;;;9.20;;
12719;SDS011;6424;48.520;11.228;2023-05-08T14:13:19;10.00;;;9.10;;
12719;SDS011;6424;48.520;11.228;2023-05-08T14:16:02;10.07;;;9.13;;
12719;SDS011;6424;48.520;11.228;2023-05-08T14:18:44;8.90;;;8.10;;
12719;SDS011;6424;48.520;11.228;2023-05-08T14:21:25;11.67;;;8.00;;
12719;SDS011;6424;48.520;11.228;2023-05-08T14:23:51;8.53;;;7.73;;
12719;SDS011;6424;48.520;11.228;2023-05-08T14:26:32;8.27;;;7.47;;
12719;SDS011;6424;48.520;11.228;2023-05-08T14:29:13;8.73;;;7.93;;
12719;SDS011;6424;48.520;11.228;2023-05-08T14:31:54;9.67;;;8.27;;
12719;SDS011;6424;48.520;11.228;2023-05-08T14:34:35;8.60;;;7.80;;
12719;SDS011;6424;48.520;11.228;2023-05-08T14:37:01;9.23;;;8.10;;
12719;SDS011;6424;48.520;11.228;2023-05-08T14:39:42;8.73;;;7.93;;
12719;SDS011;6424;48.520;11.228;2023-05-08T14:42:24;8.60;;;7.77;;
12719;SDS011;6424;48.520;11.228;2023-05-08T14:45:05;8.90;;;8.00;;
12719;SDS011;6424;48.520;11.228;2023-05-08T14:47:46;8.87;;;7.97;;
12719;SDS011;6424;48.520;11.228;2023-05-08T14:50:27;9.53;;;8.53;;
12719;SDS011;6424;48.520;11.228;2023-05-08T14:53:08;9.30;;;8.30;;
12719;SDS011;6424;48.520;11.228;2023-05-08T14:55:34;9.70;;;8.80;;
12719;SDS011;6424;48.520;11.228;2023-05-08T14:58:15;9.47;;;8.57;;
12719;SDS011;6424;48.520;11.228;2023-05-08T15:00:55;11.03;;;9.10;;
12719;SDS011;6424;48.520;11.228;2023-05-08T15:03:36;10.90;;;9.40;;
12719;SDS011;6424;48.520;11.228;2023-05-08T15:06:20;11.10;;;9.80;;
12719;SDS011;6424;48.520;11.228;2023-05-08T15:09:02;10.93;;;9.83;;
12719;SDS011;6424;48.520;11.228;2023-05-08T15:11:43;11.33;;;10.23;;
12719;SDS011;6424;48.520;11.228;2023-05-08T15:14:09;12.47;;;9.93;;
12719;SDS011;6424;48.520;11.228;2023-05-08T15:16:50;10.87;;;9.60;;
12719;SDS011;6424;48.520;11.228;2023-05-08T15:19:30;9.93;;;8.70;;
12719;SDS011;6424;48.520;11.228;2023-05-08T15:22:11;10.97;;;9.97;;
12719;SDS011;6424;48.520;11.228;2023-05-08T15:24:52;9.53;;;8.63;;
12719;SDS011;6424;48.520;11.228;2023-05-08T15:27:18;13.43;;;9.23;;
12719;SDS011;6424;48.520;11.228;2023-05-08T15:29:59;9.33;;;8.53;;
12719;SDS011;6424;48.520;11.228;2023-05-08T15:32:39;10.87;;;9.83;;
12719;SDS011;6424;48.520;11.228;2023-05-08T15:35:22;10.13;;;8.87;;
12719;SDS011;6424;48.520;11.228;2023-05-08T15:38:03;10.40;;;9.47;;
12719;SDS011;6424;48.520;11.228;2023-05-08T15:40:46;12.20;;;8.70;;
12719;SDS011;6424;48.520;11.228;2023-05-08T15:43:26;8.97;;;8.17;;
12719;SDS011;6424;48.520;11.228;2023-05-08T15:46:07;10.03;;;8.23;;
12719;SDS011;6424;48.520;11.228;2023-05-08T15:48:48;10.13;;;9.03;;
12719;SDS011;6424;48.520;11.228;2023-05-08T15:51:29;9.73;;;8.70;;
12719;SDS011;6424;48.520;11.228;2023-05-08T15:54:09;9.20;;;8.37;;
12719;SDS011;6424;48.520;11.228;2023-05-08T15:56:35;9.90;;;8.57;;
12719;SDS011;6424;48.520;11.228;2023-05-08T15:59:16;8.47;;;7.33;;
12719;SDS011;6424;48.520;11.228;2023-05-08T16:01:57;8.33;;;7.53;;
12719;SDS011;6424;48.520;11.228;2023-05-08T16:04:37;8.50;;;7.70;;
12719;SDS011;6424;48.520;11.228;2023-05-08T16:07:18;8.13;;;7.43;;
12719;SDS011;6424;48.520;11.228;2023-05-08T16:09:59;8.87;;;8.07;;
12719;SDS011;6424;48.520;11.228;2023-05-08T16:12:40;8.50;;;7.60;;
12719;SDS011;6424;48.520;11.228;2023-05-08T16:15:21;8.67;;;7.87;;
12719;SDS011;6424;48.520;11.228;2023-05-08T16:18:02;8.00;;;6.77;;
12719;SDS011;6424;48.520;11.228;2023-05-08T16:20:43;8.53;;;7.63;;
12719;SDS011;6424;48.520;11.228;2023-05-08T16:23:09;9.00;;;8.20;;
12719;SDS011;6424;48.520;11.228;2023-05-08T16:25:50;8.50;;;7.80;;
12719;SDS011;6424;48.520;11.228;2023-05-08T16:28:31;8.33;;;7.53;;
12719;SDS011;6424;48.520;11.228;2023-05-08T16:31:11;9.30;;;7.50;;
12719;SDS011;6424;48.520;11.228;2023-05-08T16:33:53;8.03;;;7.33;;
12719;SDS011;6424;48.520;11.228;2023-05-08T16:36:33;8.23;;;7.27;;
12719;SDS011;6424;48.520;11.228;2023-05-08T16:39:14;8.63;;;7.80;;
12719;SDS011;6424;48.520;11.228;2023-05-08T16:41:55;8.47;;;7.60;;
12719;SDS011;6424;48.520;11.228;2023-05-08T16:44:36;7.90;;;7.20;;
12719;SDS011;6424;48.520;11.228;2023-05-08T16:47:16;7.57;;;6.83;;
12719;SDS011;6424;48.520;11.228;2023-05-08T16:49:57;7.90;;;7.20;;
12719;SDS011;6424;48.520;11.228;2023-05-08T16:52:38;7.87;;;6.97;;
12719;SDS011;6424;48.520;11.228;2023-05-08T16:55:04;8.20;;;7.40;;
12719;SDS011;6424;48.520;11.228;2023-05-08T16:57:45;7.57;;;6.73;;
12719;SDS011;6424;48.520;11.228;2023-05-08T17:00:26;8.20;;;6.80;;
12719;SDS011;6424;48.520;11.228;2023-05-08T17:03:07;7.73;;;6.73;;
12719;SDS011;6424;48.520;11.228;2023-05-08T17:05:32;7.10;;;6.50;;
12719;SDS011;6424;48.520;11.228;2023-05-08T17:08:14;6.83;;;6.23;;
12719;SDS011;6424;48.520;11.228;2023-05-08T17:10:55;6.13;;;5.63;;
12719;SDS011;6424;48.520;11.228;2023-05-08T17:13:36;6.10;;;5.60;;
12719;SDS011;6424;48.520;11.228;2023-05-08T17:16:17;6.10;;;5.50;;
12719;SDS011;6424;48.520;11.228;2023-05-08T17:18:57;6.57;;;5.97;;
12719;SDS011;6424;48.520;11.228;2023-05-08T17:21:38;6.63;;;6.00;;